Timeline UpdatesTrip UpdatesNews PostsPvt Posts♥♥Travel TipsAdmin PostsConv PostsFollowed PostsChat RequestsBlog PostsPNR Posts

Disclaimer
Search
 
 
Fri Oct 31, 2014 16:59:52 ISTHomeTrainsΣChainsAtlasPNRForumGalleryNewsFAQTripsMembersLoginFeedback
No Recent News for this Train
Other Trains in the News **new
Latest...
.
Sat May 05, 2012 (10:37PM)
⇐ Return Journey: Train# 54803

54804/Ahmedabad Jodhpur Passenger (UnReserved)

Time-Table HAS CHANGED.
Sep 04 2014 (10:57AM)
Change Departure Station:
Change Arrival Station:
Post a Train Travel TipPost a Train Travel Tip **new
Post a Comment/Question/Picture/VideoPost a Comment/Question/Picture/Video
Pantry/Catering
✕ NO Pantry Car
✕ NO Catering
RSA - Rake Sharing
3 different rounds (6 services) are run by the rakes of this train. 54803 Jodhpur (JU) - Ahemedabad (ADI) becomes 54806 for Ahmedabad - Ajmer (AII) which further goes to Jaipur (JP) as 54807. 54808 comes from Jaipur to Ajmer which further goes to Ahmedabad as 54805 and becomes...
Read more...
54804 from Ahmedabad to Jodhpur.
Rake/Coach Composition
Loco
WDM 2A ABR Shed.
News    PNR    Forum    Time-Table    Availability    Fare Chart    Map    Arr/Dep History    Trips    Gallery    ΣChains    X/O    Timeline    
Travel Time: 6h 45m    25 halts    Distance: 218 km    Avg Speed: 32 km/hr
Type: Passenger
Zone: NWR/North Western
Departs @ 13:35 (Avg 52m late)
Platform# ???
SMTWTFS
Keshavganj/KVJ 
Arrives @ 20:20 (Avg 13m late)
Platform# ???
SMTWTFS
Jodhpur Junction/JU 

25 halts. 26 intermediate Stations between Keshavganj and Jodhpur Junction

Show ALL intermediate Stations  Show Old Time-Table

#TrkCodeStation NameX/OArrivesAvgDepartsAvgHaltPFDay#KmSpeedElevZoneAddress
1/==/ADIAhmedabad Junction (12)  -06:15+191-238.02551mWRAhmedabad, Gujarat
2/==/SBTSabarmati Junction (3)  06:28+606:30+62m--1-232.62952mWRAhmedabad, Gujarat
3|--|KHDBKhodiyar  06:52+1506:54+202m--1-222.12664mWRKhodiyar, Gujarat
4|--|KLLKalol (3)X  07:08 07:19+1607:10 07:21+162m--1-211.25971mWRKalol, Gujarat
5|--|JULJhulasan (3)X  07:22 07:31+1707:24 07:33+202m--1-201.45677mWRMehsana, Gujarat
6|--|DNWDangarwaX  07:39 07:40+2107:41 07:42+242m--1-194.85883mWRJagudan, Gujarat
7|--|UMNAmbliyasan  07:48 07:50+2407:50 07:52+242m--1-187.13990mWRMehsana, Gujarat
8|--|JDNJagudanX  08:04+2308:06+332m--1-179.21790mWRKochva Road, Gujarat
9|--|MSHMahesana Junction (6)X  08:40+1708:50+1310m--1-169.47495mWRMehsana, Gujarat
10|--|BHUBhandu Motidau  08:59+1109:01+132m--1-158.37297mWRMahesana, Gujarat
11|--|UJAUnjha  09:10+1609:12+162m--1-147.563116mWRUnjha, Gujarat
12|--|KMLIKamli  09:19+1709:21+172m--1-140.263126mWRChhapi, Gujarat
13|--|SIDSiddhpur  09:27+1809:29+182m--1-133.842136mWRState Highway 41, Gujarat
14|--|DRWDharewada  09:37+2009:39+202m--1-128.357145mWRUnjha, Gujarat
15|--|CHPChhapi  09:47+1909:49+192m--1-120.659169mWRBanaskantha, Gujarat
16|--|UMUmardashi  09:57+2009:59+202m--1-112.821187mWRChitrasani, Gujarat
17|-=!PNUPalanpur Junction (5)XO  10:23+510:28+45m--1-104.445216mWRPalanpur, Gujarat
18!==!KRJDKarjodaXO  10:36+2010:37+201m--1-98.454234mNWRChhapi, Gujarat
19!==!CTTChitrasani  10:43+2110:44+211m--1-92.944225mNWRChitrasani, Gujarat
20!==!JTYJethiO  10:50+2110:52 10:51+232 1m--1-88.546212mNWRBANASKANTHA, Gujarat
21!==!IQGIqbal GadhXO  10:59+2311:00+251m--1-82.464209mNWRBanaskantha, Gujarat
22!==!SZASarotra Road  11:07+2611:08+351m--1-74.954216mNWRSarotra, Gujarat
23!==!SIMShri AmirgadhX  11:14+3711:15+441m--1-69.556229mNWRAmirgadh, Gujarat
24!==!MAAMavalXO  11:24+4411:25+551m--1-61.222245mNWRNational Highway 14, Rajasthan
25!==!ABRAbu Road (3)X  11:50+3212:15+2925m11-51.821264mNWRSirohi Dist, Rajasthan
26!==!MXOMorthala  12:24+4012:25+401m--1-48.744267mNWRNH 14, Rajasthan
27!==!KWIKivarli  12:33+4112:34+421m--1-42.843281mNWRShri Amirgadh, Rajasthan
28!==!BMNBhimana  12:45+4012:46+431m--1-35.057313mNWRAbu Road, Rajasthan
29!==!SRPJSwarupGanjO  12:55+4312:56+491m--1-26.426334mNWRSirohi Road, Rajasthan
30!==!BNSBanas  13:17 13:15+4013:18 13:16+431m--1-18.076347mNWRSirohi Road, Rajasthan
31!==!SOHSirohi Road (2)  13:29 13:24+4513:30 13:25+461m--1-7.953369mNWRPindwara, Rajasthan
32!=-|KVJKeshavganj»X  13:42 13:34+4613:43 13:35+521m--10.060393mNWRJawai Bandh, Rajasthan
33|--|NANANanaX  14:34 13:44+5014:35 13:45+541m--19.041355mNWRNana, Rajasthan
34|--|KTRKothar  15:09 13:54+5315:10 13:55+561m--115.254346mNWRPali, Rajasthan
35|--|MOIMori Bera  15:17 14:02+5615:18 14:03+1:001m--121.563323mNWRNana, Rajasthan
36|--|JWBJawai BandhX  15:27 14:12+1:0015:28 14:13+1:041m--130.945292mNWRPali, Rajasthan
37|--|BRLYBiroliyaX  15:37 14:24+1:0215:38 14:25+1:061m--139.148294mNWRBiroliya Rd, Rajasthan
38|--|FAFalna (2)  15:47 14:35+1:0315:50 14:40+1:013 5m--147.161282mNWRFalna, Rajasthan
39|--|KZQKhimel  15:57 14:48+1:0415:58 14:49+1:051m--155.255277mNWRJawai Bandh, Rajasthan
40|--|RANIRaniXO  16:05 14:56+1:0116:06 14:57+1:021m--161.56280mNWRRania, Rajasthan
41|--|BGPRBhagwanpura  16:15+016:16+31m--169.657276mNWRSomesar, Rajasthan
42|--|JALJawali  16:24+316:25+31m--177.263270mNWRRania, Rajasthan
43|--|SOSSomesar  16:33+316:34+31m--185.652269mNWRSomesar, Rajasthan
44|--|BWABhinwaliyaX  16:41+316:42+51m--191.651268mNWRPindwara, Rajasthan
45|--|BGGBanta Raghunathgarh  16:49+516:50+51m--197.623266mNWRSomesar, Rajasthan
46|--|AUWAAuwa (2)X  16:58 17:09-416:59 17:10+11m--1104.935265mNWRSomesar, Rajasthan
47|--|MJMarwar Junction (4)  17:25+217:35+510m--1113.663267mNWRMarwar Junction, Rajasthan
48|--|RKZRajkiawas  17:44 17:45+917:46+102 1m--1124.162245mNWRMarwar, Rajasthan
49|--|BOMBomadraX  17:54 17:55+1017:56+132 1m--1133.361234mNWRPali Marwar, Rajasthan
50|--|PMYPali Marwar (2)  18:07+1318:09+142m--1144.557221mNWRPali, Rajasthan
51|--|KAIKairla  18:25+1218:27 18:26+162 1m--1159.661213mNWRPali, Rajasthan
52|--|RTRohat  18:38 18:39+1818:40+202 1m--1172.860183mNWRSH 64, Rajasthan
53|--|LUNILuni Junction (3)  18:53+1818:56+223m--1185.764180mNWRLuni, Rajasthan
54|==|HWTHanwantX  19:02+3119:04+302m--1192.143185mNWRBasni, Rajasthan
55|==|SZSalawasX  19:17+2919:19+312m--1201.571193mNWRLuni, Rajasthan
56|==|BANEBasniXO  19:28 19:27+3219:30 19:29+322m--1210.97219mNWRJodhpur, Rajasthan
57|==|BGKTBhagat Ki Kothi (3)  20:03 19:57+1220:05 19:58+162 1m--1214.010229mNWRJodhpur, Rajasthan
58|=-|JUJodhpur Junction (5)•  20:35 20:20+13---1217.5-241mNWRJodhpur, Rajasthan
Scroll to Top
Scroll to Bottom